Ocean Gordon — VZB046 — position and weather

sailwx.info

Track history (hours):
 
Tides and Currents Weather Stations Pressure Air Temp Water Temp Dewpoint Dewpoint Depression Visibility Wind Speed Wind Dir Waves Ship Positions

Ocean Gordon

Last reported at 2018-Jun-23 23:16 UTC. Time now 2018-Jun-25 05:48 UTC.
Position N 49°12' W 123°08'.

Length 15 m; draft 2.3 m.

Type: Tug. MMSI: 316022038.

Date/timePositionNaut miles runAvg speedWind from/ knotsBaromVisibWave heightAir tempDewpointWater temp
2018-Jun-23 23:16N 49°12' W 123°08'2 5.9
2018-Jun-23 23:00N 49°12' W 123°06'4 8.2
2018-Jun-23 22:30N 49°11' W 122°60'4 7.7
2018-Jun-23 22:00N 49°12' W 122°54'1 1.4
2018-Jun-23 21:30N 49°13' W 122°53'1 1.1
2018-Jun-23 21:00N 49°12' W 122°54'1 1.6
2018-Jun-23 20:30N 49°13' W 122°53'0 0.1
2018-Jun-23 20:00N 49°13' W 122°53'0 0.8
2018-Jun-23 19:30N 49°13' W 122°53'3 6.3
2018-Jun-23 18:59N 49°11' W 122°58'3 6.4
2018-Jun-23 18:30N 49°12' W 123°02'4 1.8
2018-Jun-23 16:27N 49°12' W 123°08'2 3.8
2018-Jun-23 16:00N 49°12' W 123°06'2 3.8
2018-Jun-23 15:29N 49°12' W 123°09'2 4.7
2018-Jun-23 15:00N 49°13' W 123°12'2 4.9
2018-Jun-23 14:30N 49°14' W 123°15'2 4.6
2018-Jun-23 13:58N 49°15' W 123°18'2 4.6
2018-Jun-23 13:29N 49°15' W 123°21'1 2.7
2018-Jun-23 13:00N 49°16' W 123°22'1 1.7
2018-Jun-23 12:26N 49°15' W 123°23'0 0.8
2018-Jun-23 12:00N 49°15' W 123°23'0 0.7
2018-Jun-23 11:30N 49°15' W 123°23'0 0.7
2018-Jun-23 10:52N 49°15' W 123°22'1 1.2
2018-Jun-23 10:06N 49°15' W 123°21'1 5.2
2018-Jun-23 09:57N 49°16' W 123°20'2 4.9
2018-Jun-23 09:30N 49°16' W 123°17'2 4.8
2018-Jun-23 09:00N 49°14' W 123°14'2 4.6
2018-Jun-23 08:30N 49°13' W 123°11'2 4.4
2018-Jun-23 07:59N 49°12' W 123°07'0 0.7
2018-Jun-23 07:30N 49°12' W 123°08'2 3.0
2018-Jun-23 06:56N 49°13' W 123°10'3 7.4
2018-Jun-23 06:30N 49°14' W 123°14'3 6.3
2018-Jun-23 05:59N 49°16' W 123°18'4 7.3
2018-Jun-23 05:27N 49°18' W 123°24'29 7.1
2018-Jun-23 01:24N 49°33' W 124°01'3 7.2
2018-Jun-23 00:58N 49°35' W 124°05'4 6.8
2018-Jun-23 00:27N 49°37' W 124°09'3 6.5
2018-Jun-22 23:59N 49°39' W 124°13'3 6.4
2018-Jun-22 23:30N 49°41' W 124°17'3 6.3
2018-Jun-22 23:00N 49°43' W 124°21'3 6.4
2018-Jun-22 22:31N 49°45' W 124°25'3 6.0
2018-Jun-22 22:01N 49°46' W 124°29'3 6.1
2018-Jun-22 21:30N 49°48' W 124°32'3 6.4
2018-Jun-22 21:00N 49°51' W 124°36'3 6.6
2018-Jun-22 20:31N 49°53' W 124°38'3 6.3
2018-Jun-22 20:01N 49°55' W 124°42'3 6.1
2018-Jun-22 19:30N 49°58' W 124°45'3 6.0
2018-Jun-22 19:00N 49°60' W 124°49'3 6.5
2018-Jun-22 18:30N 50°03' W 124°51'3 6.4
2018-Jun-22 18:01N 50°06' W 124°49'3 6.7
2018-Jun-22 17:30N 50°08' W 124°46'3 6.5
2018-Jun-22 17:01N 50°10' W 124°41'4 7.2
2018-Jun-22 16:30N 50°13' W 124°38'4 7.0
2018-Jun-22 16:00N 50°16' W 124°39'4 7.6
2018-Jun-22 15:31N 50°19' W 124°44'3 6.1
2018-Jun-22 15:01N 50°22' W 124°42'  
2018-Jun-19 22:29N 50°25' W 124°38'4 7.8
2018-Jun-19 22:00N 50°22' W 124°42'4 7.3
2018-Jun-19 21:31N 50°19' W 124°44'4 7.6
2018-Jun-19 21:00N 50°17' W 124°39'4 7.5
2018-Jun-19 20:30N 50°13' W 124°38'4 8.2
2018-Jun-19 20:01N 50°10' W 124°42'4 8.1
2018-Jun-19 19:30N 50°07' W 124°47'4 8.4
2018-Jun-19 19:00N 50°04' W 124°51'4 7.8
2018-Jun-19 18:30N 49°60' W 124°51'4 8.6
2018-Jun-19 18:01N 49°57' W 124°45'5 9.0
2018-Jun-19 17:30N 49°54' W 124°40'4 8.7
2018-Jun-19 17:00N 49°51' W 124°36'5 9.2
2018-Jun-19 16:31N 49°47' W 124°31'4 9.0
2018-Jun-19 16:00N 49°45' W 124°25'5 9.1
2018-Jun-19 15:29N 49°43' W 124°19'4 8.9
2018-Jun-19 14:59N 49°40' W 124°13'4 9.1
2018-Jun-19 14:30N 49°37' W 124°08'4 8.6
2018-Jun-19 13:59N 49°34' W 124°03'30 8.8
2018-Jun-19 10:37N 49°19' W 123°24'1 8.6
2018-Jun-19 10:30N 49°19' W 123°23'5 9.1
2018-Jun-19 09:59N 49°16' W 123°17'5 9.9
2018-Jun-19 09:27N 49°13' W 123°10'2 4.0
2018-Jun-19 09:00N 49°12' W 123°08'2 5.0
2018-Jun-19 08:30N 49°12' W 123°04'2 3.7
2018-Jun-19 08:00N 49°12' W 123°02'3 4.8
2018-Jun-19 07:29N 49°11' W 122°58'2 4.6
2018-Jun-19 07:00N 49°12' W 122°55'2 4.1
2018-Jun-19 06:30N 49°13' W 122°52'3 5.1
2018-Jun-19 06:00N 49°13' W 122°48'2 4.3
2018-Jun-19 05:29N 49°14' W 122°45'2 4.1
2018-Jun-19 05:00N 49°16' W 122°43'2 4.5
2018-Jun-19 04:30N 49°17' W 122°41'1 1.8
2018-Jun-19 03:59N 49°17' W 122°40'0 0.1
2018-Jun-19 03:29N 49°17' W 122°40'0 0.0
2018-Jun-19 02:59N 49°17' W 122°40'2 3.5
2018-Jun-19 02:28N 49°17' W 122°42'3 5.9
2018-Jun-19 01:59N 49°15' W 122°44'0 0.0
2018-Jun-19 01:28N 49°15' W 122°44'1 1.0
2018-Jun-19 00:46N 49°14' W 122°45'3 5.3
2018-Jun-19 00:17N 49°13' W 122°49'2 5.4
2018-Jun-18 23:56N 49°13' W 122°52'11 0.9
2018-Jun-18 12:20N 49°12' W 123°08'8 6.4
2018-Jun-18 11:08N 49°17' W 123°17'2 8.7
2018-Jun-18 10:54N 49°18' W 123°14'4 9.2
2018-Jun-18 10:29N 49°19' W 123°09'2 4.6
2018-Jun-18 10:00N 49°18' W 123°06'1 1.3
2018-Jun-18 09:30N 49°18' W 123°06'0 0.0
2018-Jun-18 09:00N 49°18' W 123°06'0 0.1
2018-Jun-18 08:30N 49°18' W 123°06'0 0.2
2018-Jun-18 08:00N 49°18' W 123°05'0 0.0
2018-Jun-18 07:30N 49°18' W 123°05'0 0.2
2018-Jun-18 07:00N 49°18' W 123°06'0 0.1
2018-Jun-18 06:30N 49°18' W 123°06'0 0.0
2018-Jun-18 06:00N 49°18' W 123°06'0 0.1
2018-Jun-18 05:30N 49°18' W 123°06'0 0.0
2018-Jun-18 05:00N 49°18' W 123°06'0 0.0
2018-Jun-18 04:30N 49°18' W 123°06'0 0.1
2018-Jun-18 04:00N 49°18' W 123°06'3 6.5
2018-Jun-18 03:30N 49°19' W 123°10'5 9.6
2018-Jun-18 02:58N 49°16' W 123°17'4 7.5
2018-Jun-18 02:29N 49°13' W 123°12'3 0.2
2018-Jun-17 11:38N 49°12' W 123°08'1 6.7
2018-Jun-17 11:30N 49°12' W 123°07'2 3.2
2018-Jun-17 11:00N 49°12' W 123°04'0 0.1
2018-Jun-17 10:30N 49°12' W 123°04'3 4.8
2018-Jun-17 09:59N 49°12' W 123°08'0 0.0
2018-Jun-17 09:30N 49°12' W 123°08'0 0.0
2018-Jun-17 08:59N 49°12' W 123°08'0 0.0
2018-Jun-17 08:30N 49°12' W 123°08'0 0.0
2018-Jun-17 08:00N 49°12' W 123°08'0 0.0
2018-Jun-17 07:30N 49°12' W 123°08'1 1.3
2018-Jun-17 07:00N 49°12' W 123°07'4 9.0
2018-Jun-17 06:30N 49°12' W 123°01'4 7.3
2018-Jun-17 06:00N 49°12' W 122°55'4 8.1
2018-Jun-17 05:30N 49°09' W 123°00'2 3.8
2018-Jun-17 05:00N 49°08' W 123°03'3 6.3
2018-Jun-17 04:29N 49°07' W 123°07'4 8.1
2018-Jun-17 04:00N 49°08' W 123°13'4 7.1
2018-Jun-17 03:30N 49°06' W 123°18'13 7.3
2018-Jun-17 01:47N 49°01' W 123°35'2 5.0
2018-Jun-17 01:24N 48°59' W 123°35'2 5.5
2018-Jun-17 00:59N 48°57' W 123°33'3 5.8
2018-Jun-17 00:26N 48°55' W 123°30'2 5.6
2018-Jun-17 00:00N 48°54' W 123°27'3 5.8
2018-Jun-16 23:27N 48°51' W 123°23'3 5.8
2018-Jun-16 22:59N 48°49' W 123°21'3 6.2
2018-Jun-16 22:30N 48°46' W 123°21'3 5.9
2018-Jun-16 22:00N 48°44' W 123°24'3 6.1
2018-Jun-16 21:30N 48°42' W 123°28'4 7.8
2018-Jun-16 21:00N 48°39' W 123°30'3 7.0
2018-Jun-16 20:30N 48°35' W 123°31'4 7.5
2018-Jun-16 20:00N 48°39' W 123°30'4 8.7
2018-Jun-16 19:30N 48°43' W 123°27'5 9.5
2018-Jun-16 18:59N 48°46' W 123°22'510.8
2018-Jun-16 18:29N 48°52' W 123°20'7 9.8
2018-Jun-16 17:48N 48°58' W 123°18'311.9
2018-Jun-16 17:30N 49°02' W 123°19'510.0
2018-Jun-16 17:00N 49°07' W 123°17'611.3
2018-Jun-16 16:30N 49°07' W 123°08'5 9.7
2018-Jun-16 16:00N 49°09' W 123°02'1 2.6
2018-Jun-16 15:30N 49°09' W 123°00'2 3.2
2018-Jun-16 15:00N 49°09' W 123°02'3 5.4
2018-Jun-16 14:30N 49°07' W 123°06'3 5.4
2018-Jun-16 14:00N 49°07' W 123°10'2 4.8
2018-Jun-16 13:29N 49°08' W 123°13'2 4.0
2018-Jun-16 12:59N 49°07' W 123°16'2 4.2
2018-Jun-16 12:29N 49°06' W 123°19'2 4.0
2018-Jun-16 11:59N 49°07' W 123°22'5 6.0
2018-Jun-16 11:14N 49°10' W 123°27'45 6.4
2018-Jun-16 04:09N 49°35' W 124°25'2 5.8
2018-Jun-16 03:53N 49°36' W 124°26'3 6.1
2018-Jun-16 03:22N 49°39' W 124°30'3 0.3
2018-Jun-15 15:52N 49°41' W 124°33'2 6.2
2018-Jun-15 15:29N 49°39' W 124°31'3 6.4
2018-Jun-15 14:59N 49°37' W 124°27'46 7.5
2018-Jun-15 08:53N 49°11' W 123°30'3 7.3
2018-Jun-15 08:25N 49°09' W 123°25'3 7.3
2018-Jun-15 07:58N 49°07' W 123°21'4 6.8
2018-Jun-15 07:27N 49°07' W 123°16'4 8.7
2018-Jun-15 07:00N 49°07' W 123°10'4 8.3
2018-Jun-15 06:30N 49°08' W 123°04'2 4.4
2018-Jun-15 06:00N 49°09' W 123°01'5 9.2
2018-Jun-15 05:30N 49°11' W 122°55'4 7.9
2018-Jun-15 05:00N 49°13' W 122°50'1 2.7
2018-Jun-15 04:30N 49°13' W 122°48'3 7.0
2018-Jun-15 04:00N 49°11' W 122°43'2 2.8
2018-Jun-15 03:24N 49°11' W 122°41'1 1.9
2018-Jun-15 02:58N 49°11' W 122°42'3 6.0
2018-Jun-15 02:30N 49°13' W 122°45'4 8.3
2018-Jun-15 02:00N 49°13' W 122°52'1 3.0
2018-Jun-15 01:30N 49°13' W 122°54'3 5.6
2018-Jun-15 01:00N 49°11' W 122°58'3 5.6
2018-Jun-15 00:30N 49°12' W 123°02'2 4.7
2018-Jun-15 00:00N 49°12' W 123°05'0 0.8
2018-Jun-14 23:30N 49°12' W 123°06'2 3.0
2018-Jun-14 23:00N 49°12' W 123°08'0 0.1
2018-Jun-14 22:29N 49°12' W 123°08'0 0.1
2018-Jun-14 21:58N 49°12' W 123°08'1 2.2
2018-Jun-14 21:23N 49°13' W 123°10'2 4.4
2018-Jun-14 21:00N 49°13' W 123°12'4 4.5
2018-Jun-14 20:10N 49°15' W 123°17'1 5.0
2018-Jun-14 20:00N 49°16' W 123°18'2 3.4
2018-Jun-14 19:29N 49°16' W 123°21'3 5.2
2018-Jun-14 18:57N 49°15' W 123°16'3 5.6
2018-Jun-14 18:30N 49°14' W 123°13'3 5.9
2018-Jun-14 17:58N 49°12' W 123°09'0 1.0
2018-Jun-14 17:29N 49°12' W 123°08'0 0.1
2018-Jun-14 16:47N 49°12' W 123°08'0 1.3
2018-Jun-14 16:30N 49°12' W 123°08'0 0.1
2018-Jun-14 15:57N 49°12' W 123°08'0 0.0
2018-Jun-14 15:22N 49°12' W 123°08'0 0.0
2018-Jun-14 14:59N 49°12' W 123°08'0 0.0
2018-Jun-14 14:30N 49°12' W 123°08'0 0.0
2018-Jun-14 14:00N 49°12' W 123°08'0 0.0
2018-Jun-14 13:30N 49°12' W 123°08'1 3.0
2018-Jun-14 13:00N 49°12' W 123°06'0 0.9
2018-Jun-14 12:29N 49°12' W 123°07'1 2.9
2018-Jun-14 11:59N 49°12' W 123°09'2 3.3
2018-Jun-14 11:30N 49°13' W 123°11'1 3.0
2018-Jun-14 11:00N 49°14' W 123°13'2 2.8
2018-Jun-14 10:25N 49°15' W 123°15'1 3.1
2018-Jun-14 10:00N 49°15' W 123°17'1 2.9
2018-Jun-14 09:30N 49°16' W 123°19'1 2.6
2018-Jun-14 08:58N 49°17' W 123°21'2 3.5
2018-Jun-14 08:26N 49°17' W 123°23'2 3.7
2018-Jun-14 07:54N 49°18' W 123°26'2 0.5
2018-Jun-14 04:43N 49°17' W 123°29'2 6.5
2018-Jun-14 04:27N 49°16' W 123°27'3 6.7
2018-Jun-14 04:00N 49°13' W 123°25'3 6.6
2018-Jun-14 03:30N 49°10' W 123°22'3 6.9
2018-Jun-14 03:00N 49°07' W 123°20'3 5.7
2018-Jun-14 02:30N 49°07' W 123°15'4 7.4
2018-Jun-14 02:00N 49°07' W 123°10'4 7.3
2018-Jun-14 01:30N 49°07' W 123°04'3 6.6
2018-Jun-14 01:00N 49°09' W 123°00'1 1.9
2018-Jun-14 00:30N 49°09' W 123°01'0 0.7
2018-Jun-14 00:00N 49°09' W 123°02'2 3.9
2018-Jun-13 23:30N 49°07' W 123°04'  
Track history (hours):
 
Tides and Currents Weather Stations Pressure Air Temp Water Temp Dewpoint Dewpoint Depression Visibility Wind Speed Wind Dir Waves Ship Positions

Ocean Gordon

Last reported at 2018-Jun-23 23:16 UTC. Time now 2018-Jun-25 05:48 UTC.
Position N 49°12' W 123°08'.

Length 15 m; draft 2.3 m.

Type: Tug. MMSI: 316022038.

Date/timePositionNaut miles runAvg speedWind from/ knotsBaromVisibWave heightAir tempDewpointWater temp
2018-Jun-23 23:16N 49°12' W 123°08'2 5.9
2018-Jun-23 23:00N 49°12' W 123°06'4 8.2
2018-Jun-23 22:30N 49°11' W 122°60'4 7.7
2018-Jun-23 22:00N 49°12' W 122°54'1 1.4
2018-Jun-23 21:30N 49°13' W 122°53'1 1.1
2018-Jun-23 21:00N 49°12' W 122°54'1 1.6
2018-Jun-23 20:30N 49°13' W 122°53'0 0.1
2018-Jun-23 20:00N 49°13' W 122°53'0 0.8
2018-Jun-23 19:30N 49°13' W 122°53'3 6.3
2018-Jun-23 18:59N 49°11' W 122°58'3 6.4
2018-Jun-23 18:30N 49°12' W 123°02'4 1.8
2018-Jun-23 16:27N 49°12' W 123°08'2 3.8
2018-Jun-23 16:00N 49°12' W 123°06'2 3.8
2018-Jun-23 15:29N 49°12' W 123°09'2 4.7
2018-Jun-23 15:00N 49°13' W 123°12'2 4.9
2018-Jun-23 14:30N 49°14' W 123°15'2 4.6
2018-Jun-23 13:58N 49°15' W 123°18'2 4.6
2018-Jun-23 13:29N 49°15' W 123°21'1 2.7
2018-Jun-23 13:00N 49°16' W 123°22'1 1.7
2018-Jun-23 12:26N 49°15' W 123°23'0 0.8
2018-Jun-23 12:00N 49°15' W 123°23'0 0.7
2018-Jun-23 11:30N 49°15' W 123°23'0 0.7
2018-Jun-23 10:52N 49°15' W 123°22'1 1.2
2018-Jun-23 10:06N 49°15' W 123°21'1 5.2
2018-Jun-23 09:57N 49°16' W 123°20'2 4.9
2018-Jun-23 09:30N 49°16' W 123°17'2 4.8
2018-Jun-23 09:00N 49°14' W 123°14'2 4.6
2018-Jun-23 08:30N 49°13' W 123°11'2 4.4
2018-Jun-23 07:59N 49°12' W 123°07'0 0.7
2018-Jun-23 07:30N 49°12' W 123°08'2 3.0
2018-Jun-23 06:56N 49°13' W 123°10'3 7.4
2018-Jun-23 06:30N 49°14' W 123°14'3 6.3
2018-Jun-23 05:59N 49°16' W 123°18'4 7.3
2018-Jun-23 05:27N 49°18' W 123°24'29 7.1
2018-Jun-23 01:24N 49°33' W 124°01'3 7.2
2018-Jun-23 00:58N 49°35' W 124°05'4 6.8
2018-Jun-23 00:27N 49°37' W 124°09'3 6.5
2018-Jun-22 23:59N 49°39' W 124°13'3 6.4
2018-Jun-22 23:30N 49°41' W 124°17'3 6.3
2018-Jun-22 23:00N 49°43' W 124°21'3 6.4
2018-Jun-22 22:31N 49°45' W 124°25'3 6.0
2018-Jun-22 22:01N 49°46' W 124°29'3 6.1
2018-Jun-22 21:30N 49°48' W 124°32'3 6.4
2018-Jun-22 21:00N 49°51' W 124°36'3 6.6
2018-Jun-22 20:31N 49°53' W 124°38'3 6.3
2018-Jun-22 20:01N 49°55' W 124°42'3 6.1
2018-Jun-22 19:30N 49°58' W 124°45'3 6.0
2018-Jun-22 19:00N 49°60' W 124°49'3 6.5
2018-Jun-22 18:30N 50°03' W 124°51'3 6.4
2018-Jun-22 18:01N 50°06' W 124°49'3 6.7
2018-Jun-22 17:30N 50°08' W 124°46'3 6.5
2018-Jun-22 17:01N 50°10' W 124°41'4 7.2
2018-Jun-22 16:30N 50°13' W 124°38'4 7.0
2018-Jun-22 16:00N 50°16' W 124°39'4 7.6
2018-Jun-22 15:31N 50°19' W 124°44'3 6.1
2018-Jun-22 15:01N 50°22' W 124°42'  
2018-Jun-19 22:29N 50°25' W 124°38'4 7.8
2018-Jun-19 22:00N 50°22' W 124°42'4 7.3
2018-Jun-19 21:31N 50°19' W 124°44'4 7.6
2018-Jun-19 21:00N 50°17' W 124°39'4 7.5
2018-Jun-19 20:30N 50°13' W 124°38'4 8.2
2018-Jun-19 20:01N 50°10' W 124°42'4 8.1
2018-Jun-19 19:30N 50°07' W 124°47'4 8.4
2018-Jun-19 19:00N 50°04' W 124°51'4 7.8
2018-Jun-19 18:30N 49°60' W 124°51'4 8.6
2018-Jun-19 18:01N 49°57' W 124°45'5 9.0
2018-Jun-19 17:30N 49°54' W 124°40'4 8.7
2018-Jun-19 17:00N 49°51' W 124°36'5 9.2
2018-Jun-19 16:31N 49°47' W 124°31'4 9.0
2018-Jun-19 16:00N 49°45' W 124°25'5 9.1
2018-Jun-19 15:29N 49°43' W 124°19'4 8.9
2018-Jun-19 14:59N 49°40' W 124°13'4 9.1
2018-Jun-19 14:30N 49°37' W 124°08'4 8.6
2018-Jun-19 13:59N 49°34' W 124°03'30 8.8
2018-Jun-19 10:37N 49°19' W 123°24'1 8.6
2018-Jun-19 10:30N 49°19' W 123°23'5 9.1
2018-Jun-19 09:59N 49°16' W 123°17'5 9.9
2018-Jun-19 09:27N 49°13' W 123°10'2 4.0
2018-Jun-19 09:00N 49°12' W 123°08'2 5.0
2018-Jun-19 08:30N 49°12' W 123°04'2 3.7
2018-Jun-19 08:00N 49°12' W 123°02'3 4.8
2018-Jun-19 07:29N 49°11' W 122°58'2 4.6
2018-Jun-19 07:00N 49°12' W 122°55'2 4.1
2018-Jun-19 06:30N 49°13' W 122°52'3 5.1
2018-Jun-19 06:00N 49°13' W 122°48'2 4.3
2018-Jun-19 05:29N 49°14' W 122°45'2 4.1
2018-Jun-19 05:00N 49°16' W 122°43'2 4.5
2018-Jun-19 04:30N 49°17' W 122°41'1 1.8
2018-Jun-19 03:59N 49°17' W 122°40'0 0.1
2018-Jun-19 03:29N 49°17' W 122°40'0 0.0
2018-Jun-19 02:59N 49°17' W 122°40'2 3.5
2018-Jun-19 02:28N 49°17' W 122°42'3 5.9
2018-Jun-19 01:59N 49°15' W 122°44'0 0.0
2018-Jun-19 01:28N 49°15' W 122°44'1 1.0
2018-Jun-19 00:46N 49°14' W 122°45'3 5.3
2018-Jun-19 00:17N 49°13' W 122°49'2 5.4
2018-Jun-18 23:56N 49°13' W 122°52'11 0.9
2018-Jun-18 12:20N 49°12' W 123°08'8 6.4
2018-Jun-18 11:08N 49°17' W 123°17'2 8.7
2018-Jun-18 10:54N 49°18' W 123°14'4 9.2
2018-Jun-18 10:29N 49°19' W 123°09'2 4.6
2018-Jun-18 10:00N 49°18' W 123°06'1 1.3
2018-Jun-18 09:30N 49°18' W 123°06'0 0.0
2018-Jun-18 09:00N 49°18' W 123°06'0 0.1
2018-Jun-18 08:30N 49°18' W 123°06'0 0.2
2018-Jun-18 08:00N 49°18' W 123°05'0 0.0
2018-Jun-18 07:30N 49°18' W 123°05'0 0.2
2018-Jun-18 07:00N 49°18' W 123°06'0 0.1
2018-Jun-18 06:30N 49°18' W 123°06'0 0.0
2018-Jun-18 06:00N 49°18' W 123°06'0 0.1
2018-Jun-18 05:30N 49°18' W 123°06'0 0.0
2018-Jun-18 05:00N 49°18' W 123°06'0 0.0
2018-Jun-18 04:30N 49°18' W 123°06'0 0.1
2018-Jun-18 04:00N 49°18' W 123°06'3 6.5
2018-Jun-18 03:30N 49°19' W 123°10'5 9.6
2018-Jun-18 02:58N 49°16' W 123°17'4 7.5
2018-Jun-18 02:29N 49°13' W 123°12'3 0.2
2018-Jun-17 11:38N 49°12' W 123°08'1 6.7
2018-Jun-17 11:30N 49°12' W 123°07'2 3.2
2018-Jun-17 11:00N 49°12' W 123°04'0 0.1
2018-Jun-17 10:30N 49°12' W 123°04'3 4.8
2018-Jun-17 09:59N 49°12' W 123°08'0 0.0
2018-Jun-17 09:30N 49°12' W 123°08'0 0.0
2018-Jun-17 08:59N 49°12' W 123°08'0 0.0
2018-Jun-17 08:30N 49°12' W 123°08'0 0.0
2018-Jun-17 08:00N 49°12' W 123°08'0 0.0
2018-Jun-17 07:30N 49°12' W 123°08'1 1.3
2018-Jun-17 07:00N 49°12' W 123°07'4 9.0
2018-Jun-17 06:30N 49°12' W 123°01'4 7.3
2018-Jun-17 06:00N 49°12' W 122°55'4 8.1
2018-Jun-17 05:30N 49°09' W 123°00'2 3.8
2018-Jun-17 05:00N 49°08' W 123°03'3 6.3
2018-Jun-17 04:29N 49°07' W 123°07'4 8.1
2018-Jun-17 04:00N 49°08' W 123°13'4 7.1
2018-Jun-17 03:30N 49°06' W 123°18'13 7.3
2018-Jun-17 01:47N 49°01' W 123°35'2 5.0
2018-Jun-17 01:24N 48°59' W 123°35'2 5.5
2018-Jun-17 00:59N 48°57' W 123°33'3 5.8
2018-Jun-17 00:26N 48°55' W 123°30'2 5.6
2018-Jun-17 00:00N 48°54' W 123°27'3 5.8
2018-Jun-16 23:27N 48°51' W 123°23'3 5.8
2018-Jun-16 22:59N 48°49' W 123°21'3 6.2
2018-Jun-16 22:30N 48°46' W 123°21'3 5.9
2018-Jun-16 22:00N 48°44' W 123°24'3 6.1
2018-Jun-16 21:30N 48°42' W 123°28'4 7.8
2018-Jun-16 21:00N 48°39' W 123°30'3 7.0
2018-Jun-16 20:30N 48°35' W 123°31'4 7.5
2018-Jun-16 20:00N 48°39' W 123°30'4 8.7
2018-Jun-16 19:30N 48°43' W 123°27'5 9.5
2018-Jun-16 18:59N 48°46' W 123°22'510.8
2018-Jun-16 18:29N 48°52' W 123°20'7 9.8
2018-Jun-16 17:48N 48°58' W 123°18'311.9
2018-Jun-16 17:30N 49°02' W 123°19'510.0
2018-Jun-16 17:00N 49°07' W 123°17'611.3
2018-Jun-16 16:30N 49°07' W 123°08'5 9.7
2018-Jun-16 16:00N 49°09' W 123°02'1 2.6
2018-Jun-16 15:30N 49°09' W 123°00'2 3.2
2018-Jun-16 15:00N 49°09' W 123°02'3 5.4
2018-Jun-16 14:30N 49°07' W 123°06'3 5.4
2018-Jun-16 14:00N 49°07' W 123°10'2 4.8
2018-Jun-16 13:29N 49°08' W 123°13'2 4.0
2018-Jun-16 12:59N 49°07' W 123°16'2 4.2
2018-Jun-16 12:29N 49°06' W 123°19'2 4.0
2018-Jun-16 11:59N 49°07' W 123°22'5 6.0
2018-Jun-16 11:14N 49°10' W 123°27'45 6.4
2018-Jun-16 04:09N 49°35' W 124°25'2 5.8
2018-Jun-16 03:53N 49°36' W 124°26'3 6.1
2018-Jun-16 03:22N 49°39' W 124°30'3 0.3
2018-Jun-15 15:52N 49°41' W 124°33'2 6.2
2018-Jun-15 15:29N 49°39' W 124°31'3 6.4
2018-Jun-15 14:59N 49°37' W 124°27'46 7.5
2018-Jun-15 08:53N 49°11' W 123°30'3 7.3
2018-Jun-15 08:25N 49°09' W 123°25'3 7.3
2018-Jun-15 07:58N 49°07' W 123°21'4 6.8
2018-Jun-15 07:27N 49°07' W 123°16'4 8.7
2018-Jun-15 07:00N 49°07' W 123°10'4 8.3
2018-Jun-15 06:30N 49°08' W 123°04'2 4.4
2018-Jun-15 06:00N 49°09' W 123°01'5 9.2
2018-Jun-15 05:30N 49°11' W 122°55'4 7.9
2018-Jun-15 05:00N 49°13' W 122°50'1 2.7
2018-Jun-15 04:30N 49°13' W 122°48'3 7.0
2018-Jun-15 04:00N 49°11' W 122°43'2 2.8
2018-Jun-15 03:24N 49°11' W 122°41'1 1.9
2018-Jun-15 02:58N 49°11' W 122°42'3 6.0
2018-Jun-15 02:30N 49°13' W 122°45'4 8.3
2018-Jun-15 02:00N 49°13' W 122°52'1 3.0
2018-Jun-15 01:30N 49°13' W 122°54'3 5.6
2018-Jun-15 01:00N 49°11' W 122°58'3 5.6
2018-Jun-15 00:30N 49°12' W 123°02'2 4.7
2018-Jun-15 00:00N 49°12' W 123°05'0 0.8
2018-Jun-14 23:30N 49°12' W 123°06'2 3.0
2018-Jun-14 23:00N 49°12' W 123°08'0 0.1
2018-Jun-14 22:29N 49°12' W 123°08'0 0.1
2018-Jun-14 21:58N 49°12' W 123°08'1 2.2
2018-Jun-14 21:23N 49°13' W 123°10'2 4.4
2018-Jun-14 21:00N 49°13' W 123°12'4 4.5
2018-Jun-14 20:10N 49°15' W 123°17'1 5.0
2018-Jun-14 20:00N 49°16' W 123°18'2 3.4
2018-Jun-14 19:29N 49°16' W 123°21'3 5.2
2018-Jun-14 18:57N 49°15' W 123°16'3 5.6
2018-Jun-14 18:30N 49°14' W 123°13'3 5.9
2018-Jun-14 17:58N 49°12' W 123°09'0 1.0
2018-Jun-14 17:29N 49°12' W 123°08'0 0.1
2018-Jun-14 16:47N 49°12' W 123°08'0 1.3
2018-Jun-14 16:30N 49°12' W 123°08'0 0.1
2018-Jun-14 15:57N 49°12' W 123°08'0 0.0
2018-Jun-14 15:22N 49°12' W 123°08'0 0.0
2018-Jun-14 14:59N 49°12' W 123°08'0 0.0
2018-Jun-14 14:30N 49°12' W 123°08'0 0.0
2018-Jun-14 14:00N 49°12' W 123°08'0 0.0
2018-Jun-14 13:30N 49°12' W 123°08'1 3.0
2018-Jun-14 13:00N 49°12' W 123°06'0 0.9
2018-Jun-14 12:29N 49°12' W 123°07'1 2.9
2018-Jun-14 11:59N 49°12' W 123°09'2 3.3
2018-Jun-14 11:30N 49°13' W 123°11'1 3.0
2018-Jun-14 11:00N 49°14' W 123°13'2 2.8
2018-Jun-14 10:25N 49°15' W 123°15'1 3.1
2018-Jun-14 10:00N 49°15' W 123°17'1 2.9
2018-Jun-14 09:30N 49°16' W 123°19'1 2.6
2018-Jun-14 08:58N 49°17' W 123°21'2 3.5
2018-Jun-14 08:26N 49°17' W 123°23'2 3.7
2018-Jun-14 07:54N 49°18' W 123°26'2 0.5
2018-Jun-14 04:43N 49°17' W 123°29'2 6.5
2018-Jun-14 04:27N 49°16' W 123°27'3 6.7
2018-Jun-14 04:00N 49°13' W 123°25'3 6.6
2018-Jun-14 03:30N 49°10' W 123°22'3 6.9
2018-Jun-14 03:00N 49°07' W 123°20'3 5.7
2018-Jun-14 02:30N 49°07' W 123°15'4 7.4
2018-Jun-14 02:00N 49°07' W 123°10'4 7.3
2018-Jun-14 01:30N 49°07' W 123°04'3 6.6
2018-Jun-14 01:00N 49°09' W 123°00'1 1.9
2018-Jun-14 00:30N 49°09' W 123°01'0 0.7
2018-Jun-14 00:00N 49°09' W 123°02'2 3.9
2018-Jun-13 23:30N 49°07' W 123°04'  

Dump ship's entire track history